Time;durP1;ratioP1;P1;durP2;ratioP2;P2;SDS_P1;SDS_P2;PMS_P1;PMS_P2;Temp;Humidity;BMP_temperature;BMP_pressure;BME280_temperature;BME280_humidity;BME280_pressure;Samples;Min_cycle;Max_cycle;Signal;HPM_P1;HPM_P2
2022/07/24 00:00:36;;;;;;;;;;;;;;;24.65;42.72;99246.03;5055540;28;19912;-91
2022/07/24 00:03:02;;;;;;;;;;;;;;;24.58;42.47;99240.41;5054238;28;19912;-91
2022/07/24 00:05:27;;;;;;;;;;;;;;;24.63;42.59;99231.81;5055397;28;19919;-91
2022/07/24 00:07:52;;;;;;;;;;;;;;;24.71;41.67;99238.25;5055168;28;19913;-91
2022/07/24 00:10:18;;;;;;;;;;;;;;;24.81;41.54;99230.19;5055142;28;19916;-90
2022/07/24 00:12:43;;;;;;;;;;;;;;;24.93;41.14;99231.97;5055161;28;19959;-91
2022/07/24 00:15:09;;;;;;;;;;;;;;;24.99;40.73;99232.44;5055057;28;19916;-90
2022/07/24 00:17:34;;;;;;;;;;;;;;;24.87;42.46;99227.13;5074545;28;19985;-91
2022/07/24 00:19:59;;;;;;;;;;;;;;;24.77;42.52;99228.53;5056064;28;19916;-91
2022/07/24 00:22:24;;;;;;;;;;;;;;;24.65;43.18;99228.72;5055234;28;19913;-91
2022/07/24 00:24:50;;;;;;;;;;;;;;;24.53;43.37;99230.50;5074195;28;20278;-90
2022/07/24 00:27:15;;;;;;;;;;;;;;;24.54;43.37;99226.56;5075970;28;19912;-96
2022/07/24 00:29:40;;;;;;;;;;;;;;;24.58;43.16;99221.91;5059645;28;19918;-95
2022/07/24 00:32:06;;;;;;;;;;;;;;;24.68;43.09;99225.25;5076117;28;19927;-96
2022/07/24 00:34:31;;;;;;;;;;;;;;;24.76;42.91;99227.75;5076783;28;19935;-95
2022/07/24 00:36:57;;;;;;;;;;;;;;;24.81;41.01;99215.63;5076111;28;19969;-96
2022/07/24 00:39:22;;;;;;;;;;;;;;;24.93;41.26;99214.63;5076115;28;19912;-96
2022/07/24 00:41:47;;;;;;;;;;;;;;;24.97;41.58;99213.53;5075662;28;20336;-93
2022/07/24 00:44:13;;;;;;;;;;;;;;;25.02;40.63;99213.19;5061542;28;19965;-91
2022/07/24 00:46:39;;;;;;;;;;;;;;;25.07;40.31;99209.34;5055748;28;19913;-94
2022/07/24 00:49:05;;;;;;;;;;;;;;;25.16;39.56;99206.34;5046004;28;20370;-93
2022/07/24 00:51:30;;;;;;;;;;;;;;;25.23;39.42;99211.19;5055445;28;19927;-93
2022/07/24 00:53:55;;;;;;;;;;;;;;;25.28;39.49;99199.84;5055068;28;19921;-93
2022/07/24 00:56:21;;;;;;;;;;;;;;;25.33;39.35;99202.28;5055665;28;20370;-93
2022/07/24 00:58:46;;;;;;;;;;;;;;;25.09;42.16;99200.72;5052347;28;19951;-95
2022/07/24 01:01:12;;;;;;;;;;;;;;;24.90;42.91;99196.09;5035552;28;19912;-94
2022/07/24 01:03:37;;;;;;;;;;;;;;;24.70;43.48;99200.88;5048235;28;20031;-94
2022/07/24 01:06:02;;;;;;;;;;;;;;;24.35;44.41;99190.81;5075158;28;19988;-94
2022/07/24 01:08:28;;;;;;;;;;;;;;;24.23;44.54;99193.72;5067741;28;19919;-94
2022/07/24 01:10:53;;;;;;;;;;;;;;;24.16;44.67;99192.44;5055200;28;19999;-94
2022/07/24 01:13:18;;;;;;;;;;;;;;;24.00;44.79;99183.47;5055130;28;19919;-94
2022/07/24 01:15:45;;;;;;;;;;;;;;;23.93;44.91;99186.88;5055298;28;19916;-93
2022/07/24 01:18:11;;;;;;;;;;;;;;;23.86;45.17;99177.69;5033166;28;20020;-93
2022/07/24 01:20:37;;;;;;;;;;;;;;;23.86;44.80;99177.69;5035242;28;19913;-94
2022/07/24 01:23:02;;;;;;;;;;;;;;;23.77;44.67;99181.44;5051703;28;20003;-93
2022/07/24 01:25:27;;;;;;;;;;;;;;;23.74;44.83;99175.84;5052013;28;20367;-94
2022/07/24 01:27:53;;;;;;;;;;;;;;;23.69;44.86;99179.69;5058038;28;20304;-93
2022/07/24 01:30:18;;;;;;;;;;;;;;;23.65;45.92;99178.03;5074944;28;19916;-93
2022/07/24 01:32:43;;;;;;;;;;;;;;;23.50;45.61;99180.47;5073260;28;19916;-94
2022/07/24 01:35:09;;;;;;;;;;;;;;;23.54;45.63;99180.56;5055335;28;19961;-94
2022/07/24 01:37:34;;;;;;;;;;;;;;;23.42;45.92;99175.19;5055139;28;19913;-93
2022/07/24 01:39:59;;;;;;;;;;;;;;;23.32;46.30;99177.31;5058024;28;19916;-94
2022/07/24 01:42:25;;;;;;;;;;;;;;;23.37;46.21;99176.25;5059033;28;19935;-94
2022/07/24 01:44:50;;;;;;;;;;;;;;;23.29;46.57;99169.81;5077693;28;20001;-93
2022/07/24 01:47:16;;;;;;;;;;;;;;;23.33;46.18;99161.66;5078632;28;20458;-93
2022/07/24 01:49:42;;;;;;;;;;;;;;;23.23;46.83;99168.50;5078566;28;19916;-93
2022/07/24 01:52:08;;;;;;;;;;;;;;;23.24;46.95;99170.06;5078444;28;19916;-93
2022/07/24 01:54:33;;;;;;;;;;;;;;;23.25;46.75;99160.69;5078671;28;20427;-93
2022/07/24 01:56:58;;;;;;;;;;;;;;;23.13;46.99;99161.59;5078415;28;19926;-93
2022/07/24 01:59:23;;;;;;;;;;;;;;;23.03;47.70;99153.91;5062935;28;19963;-93
2022/07/24 02:01:49;;;;;;;;;;;;;;;22.95;48.01;99157.63;5041982;28;19946;-93
2022/07/24 02:04:14;;;;;;;;;;;;;;;22.99;48.04;99156.56;5047825;28;20026;-93
2022/07/24 02:06:39;;;;;;;;;;;;;;;22.89;48.67;99157.09;5058726;28;19920;-94
2022/07/24 02:09:05;;;;;;;;;;;;;;;22.88;47.99;99163.75;5058272;28;20336;-94
2022/07/24 02:11:30;;;;;;;;;;;;;;;22.77;48.43;99155.25;5058589;28;19926;-94
2022/07/24 02:13:56;;;;;;;;;;;;;;;22.78;48.29;99159.56;5050257;28;19935;-95
2022/07/24 02:16:22;;;;;;;;;;;;;;;22.68;48.93;99156.56;5058142;28;19912;-94
2022/07/24 02:18:47;;;;;;;;;;;;;;;22.64;48.62;99155.69;5055126;28;19913;-94
2022/07/24 02:21:12;;;;;;;;;;;;;;;22.57;49.04;99159.06;5037952;28;19913;-93
2022/07/24 02:23:38;;;;;;;;;;;;;;;22.60;48.75;99158.38;5049849;28;19952;-93
2022/07/24 02:26:03;;;;;;;;;;;;;;;22.59;48.89;99159.50;5078203;28;20301;-94
2022/07/24 02:28:28;;;;;;;;;;;;;;;22.57;48.33;99154.38;5070502;28;19912;-94
2022/07/24 02:30:54;;;;;;;;;;;;;;;22.52;49.45;99151.91;5058005;28;20401;-94
2022/07/24 02:33:19;;;;;;;;;;;;;;;22.53;48.93;99155.44;5054502;28;19920;-93
2022/07/24 02:35:45;;;;;;;;;;;;;;;22.51;49.17;99153.03;5057496;28;19955;-94
2022/07/24 02:38:11;;;;;;;;;;;;;;;22.46;49.75;99147.81;5057866;28;19916;-94
2022/07/24 02:40:36;;;;;;;;;;;;;;;22.42;49.84;99148.88;5057574;28;19912;-93
2022/07/24 02:43:02;;;;;;;;;;;;;;;22.32;50.00;99150.19;5057621;28;19912;-93
2022/07/24 02:45:27;;;;;;;;;;;;;;;22.27;50.01;99145.00;5058193;28;19913;-93
2022/07/24 02:47:53;;;;;;;;;;;;;;;22.19;49.82;99147.50;5057350;28;19920;-93
2022/07/24 02:50:19;;;;;;;;;;;;;;;22.22;49.84;99143.25;5057462;28;20396;-93
2022/07/24 02:52:44;;;;;;;;;;;;;;;22.26;49.87;99148.88;5057343;28;20006;-94
2022/07/24 02:55:09;;;;;;;;;;;;;;;22.25;49.50;99150.81;5041195;28;20007;-94
2022/07/24 02:57:34;;;;;;;;;;;;;;;22.22;49.83;99146.00;5057302;28;20002;-93
2022/07/24 03:00:00;;;;;;;;;;;;;;;22.26;49.90;99143.38;5057173;28;19931;-93
2022/07/24 03:02:25;;;;;;;;;;;;;;;22.25;50.57;99150.81;5040647;28;19915;-93
2022/07/24 03:04:52;;;;;;;;;;;;;;;22.20;50.99;99148.28;5053842;28;19919;-94
2022/07/24 03:07:17;;;;;;;;;;;;;;;22.17;50.72;99144.31;5038466;28;19917;-94
2022/07/24 03:09:42;;;;;;;;;;;;;;;22.09;50.88;99144.47;5037229;28;19920;-94
2022/07/24 03:12:07;;;;;;;;;;;;;;;22.13;51.22;99148.13;5037031;28;20358;-94
2022/07/24 03:14:33;;;;;;;;;;;;;;;22.07;50.94;99144.03;5070406;28;19931;-93
2022/07/24 03:16:58;;;;;;;;;;;;;;;22.03;51.76;99146.69;5077165;28;19912;-94
2022/07/24 03:19:24;;;;;;;;;;;;;;;22.06;51.44;99140.50;5061544;28;19913;-93
2022/07/24 03:21:52;;;;;;;;;;;;;;;21.98;52.05;99139.50;5057075;28;19913;-93
2022/07/24 03:24:17;;;;;;;;;;;;;;;21.91;52.39;99141.25;5046123;28;19912;-92
2022/07/24 03:26:42;;;;;;;;;;;;;;;21.88;52.49;99133.75;5057063;28;19912;-92
2022/07/24 03:29:08;;;;;;;;;;;;;;;21.85;52.22;99137.16;5057255;28;19912;-92
2022/07/24 03:31:33;;;;;;;;;;;;;;;21.80;52.58;99135.47;5062731;28;19970;-92
2022/07/24 03:33:58;;;;;;;;;;;;;;;21.81;52.55;99137.09;5028872;28;19913;-92
2022/07/24 03:36:24;;;;;;;;;;;;;;;21.76;52.49;99132.63;5037534;28;19967;-92
2022/07/24 03:38:49;;;;;;;;;;;;;;;21.68;52.25;99133.56;5036262;28;19913;-94
2022/07/24 03:41:14;;;;;;;;;;;;;;;21.75;51.60;99130.25;5036488;28;19920;-94
2022/07/24 03:43:40;;;;;;;;;;;;;;;21.70;52.38;99133.25;5030543;28;20024;-94
2022/07/24 03:46:05;;;;;;;;;;;;;;;21.75;51.91;99124.78;5036294;28;19913;-94
2022/07/24 03:48:30;;;;;;;;;;;;;;;21.84;51.74;99130.91;5035926;28;19917;-94
2022/07/24 03:50:55;;;;;;;;;;;;;;;21.82;52.00;99138.66;5036139;28;19913;-94
2022/07/24 03:53:21;;;;;;;;;;;;;;;21.81;51.69;99134.34;5032557;28;19936;-94
2022/07/24 03:55:46;;;;;;;;;;;;;;;21.82;51.80;99143.34;5036536;28;19912;-93
2022/07/24 03:58:11;;;;;;;;;;;;;;;21.86;51.82;99136.03;5036003;28;20278;-94
2022/07/24 04:00:37;;;;;;;;;;;;;;;21.91;52.37;99139.28;5035855;28;19952;-92
2022/07/24 04:03:02;;;;;;;;;;;;;;;21.99;51.94;99145.78;5034622;28;19920;-95
2022/07/24 04:05:27;;;;;;;;;;;;;;;21.97;52.04;99150.81;5036034;28;19912;-92
2022/07/24 04:07:52;;;;;;;;;;;;;;;22.06;52.18;99151.47;5037050;28;20003;-92
2022/07/24 04:10:18;;;;;;;;;;;;;;;22.10;52.07;99157.03;5036255;28;19927;-94
2022/07/24 04:12:43;;;;;;;;;;;;;;;22.17;51.89;99155.28;5035621;28;20357;-94
2022/07/24 04:15:08;;;;;;;;;;;;;;;22.24;51.67;99148.41;5035545;28;19916;-94
2022/07/24 04:17:37;;;;;;;;;;;;;;;22.30;51.50;99160.72;5036029;28;20409;-94
2022/07/24 04:20:02;;;;;;;;;;;;;;;22.30;51.90;99150.53;5035626;28;20306;-95
2022/07/24 04:22:27;;;;;;;;;;;;;;;22.34;52.01;99156.91;5036169;28;19912;-95
2022/07/24 04:24:53;;;;;;;;;;;;;;;22.42;51.79;99162.59;5036119;28;20011;-94
2022/07/24 04:27:18;;;;;;;;;;;;;;;22.51;51.97;99158.53;5035720;28;20367;-94
2022/07/24 04:29:43;;;;;;;;;;;;;;;22.54;51.68;99155.09;5020691;28;19913;-94
2022/07/24 04:32:09;;;;;;;;;;;;;;;22.59;51.64;99154.03;5051336;28;19920;-94
2022/07/24 04:34:34;;;;;;;;;;;;;;;22.67;52.36;99158.53;5055354;28;19913;-92
2022/07/24 04:36:59;;;;;;;;;;;;;;;22.75;51.90;99157.56;5038803;28;20085;-94
2022/07/24 04:39:24;;;;;;;;;;;;;;;22.83;51.60;99152.22;5055543;28;19912;-94
2022/07/24 04:41:50;;;;;;;;;;;;;;;22.89;51.03;99161.78;5055831;28;20390;-94
2022/07/24 04:44:15;;;;;;;;;;;;;;;22.96;50.94;99156.47;5055179;28;19919;-92
2022/07/24 04:46:41;;;;;;;;;;;;;;;23.05;50.74;99159.06;5055881;28;19943;-95
2022/07/24 04:49:06;;;;;;;;;;;;;;;23.21;49.64;99159.81;5045918;28;20370;-92
2022/07/24 04:51:31;;;;;;;;;;;;;;;23.29;49.18;99156.06;5055736;28;19924;-93
2022/07/24 04:53:57;;;;;;;;;;;;;;;23.40;47.33;99156.28;5055857;28;19971;-93
2022/07/24 04:56:23;;;;;;;;;;;;;;;23.59;47.83;99161.00;5056263;28;19912;-92
2022/07/24 04:58:48;;;;;;;;;;;;;;;23.71;47.24;99158.13;5055691;28;19912;-93
2022/07/24 05:01:13;;;;;;;;;;;;;;;23.85;47.02;99157.66;5055591;28;20290;-92
2022/07/24 05:03:39;;;;;;;;;;;;;;;23.92;46.66;99163.28;5055569;28;19935;-92
2022/07/24 05:06:05;;;;;;;;;;;;;;;24.08;45.31;99160.44;5055359;28;19912;-92
2022/07/24 05:08:30;;;;;;;;;;;;;;;24.20;45.04;99154.78;5051136;28;19970;-92
2022/07/24 05:10:56;;;;;;;;;;;;;;;24.31;44.61;99152.22;5055996;28;19923;-93
2022/07/24 05:13:21;;;;;;;;;;;;;;;24.42;44.83;99157.91;5056916;28;19958;-93
2022/07/24 05:15:46;;;;;;;;;;;;;;;24.54;43.66;99151.47;5060052;28;19959;-92
2022/07/24 05:18:11;;;;;;;;;;;;;;;24.71;43.82;99152.91;5059756;28;19944;-92
2022/07/24 05:20:37;;;;;;;;;;;;;;;24.81;43.21;99153.06;5060008;28;19912;-92
2022/07/24 05:23:02;;;;;;;;;;;;;;;24.95;42.75;99157.22;5058744;28;20397;-92
2022/07/24 05:25:27;;;;;;;;;;;;;;;25.08;42.59;99157.81;5060217;28;19970;-93
2022/07/24 05:27:53;;;;;;;;;;;;;;;25.17;42.72;99150.88;5059669;28;19919;-94
2022/07/24 05:30:18;;;;;;;;;;;;;;;25.34;42.38;99146.78;5059381;28;19912;-92
2022/07/24 05:32:43;;;;;;;;;;;;;;;25.47;42.41;99149.31;5059951;28;19964;-92
2022/07/24 05:35:09;;;;;;;;;;;;;;;25.60;42.03;99148.69;5060877;28;19912;-92
2022/07/24 05:37:34;;;;;;;;;;;;;;;25.71;42.29;99142.50;5060831;28;19913;-92
2022/07/24 05:39:59;;;;;;;;;;;;;;;25.79;42.03;99147.75;5060467;28;19920;-92
2022/07/24 05:42:24;;;;;;;;;;;;;;;25.89;42.20;99151.81;5060883;28;19919;-92
2022/07/24 05:44:50;;;;;;;;;;;;;;;25.99;41.65;99147.59;5060417;28;19935;-93
2022/07/24 05:47:15;;;;;;;;;;;;;;;26.11;40.78;99144.56;5059634;28;19912;-92
2022/07/24 05:49:40;;;;;;;;;;;;;;;26.21;40.78;99149.41;5059810;28;19959;-92
2022/07/24 05:52:06;;;;;;;;;;;;;;;26.34;40.62;99138.88;5059559;28;19917;-92
2022/07/24 05:54:31;;;;;;;;;;;;;;;26.50;41.25;99137.81;5068172;28;20385;-93
2022/07/24 05:56:56;;;;;;;;;;;;;;;26.58;39.95;99137.53;5059639;28;20015;-92
2022/07/24 05:59:22;;;;;;;;;;;;;;;26.64;39.30;99142.69;5047861;28;20050;-92
2022/07/24 06:01:47;;;;;;;;;;;;;;;26.74;39.52;99145.53;5059292;28;19913;-92
2022/07/24 06:04:12;;;;;;;;;;;;;;;26.88;39.45;99144.06;5059930;28;19919;-93
2022/07/24 06:06:38;;;;;;;;;;;;;;;27.00;39.27;99147.31;5060687;28;20007;-91
2022/07/24 06:09:03;;;;;;;;;;;;;;;27.15;38.72;99144.63;5050346;28;20382;-92
2022/07/24 06:11:28;;;;;;;;;;;;;;;27.23;38.50;99137.19;5059422;28;19924;-93
2022/07/24 06:13:54;;;;;;;;;;;;;;;27.31;38.15;99138.81;5059018;28;19927;-92
2022/07/24 06:16:19;;;;;;;;;;;;;;;27.40;38.19;99134.53;5043744;28;19913;-93
2022/07/24 06:18:45;;;;;;;;;;;;;;;27.54;38.26;99133.03;5053425;28;20370;-92
2022/07/24 06:21:10;;;;;;;;;;;;;;;27.66;38.08;99131.88;5059334;28;19917;-92
2022/07/24 06:23:35;;;;;;;;;;;;;;;27.76;37.92;99128.34;5059155;28;19913;-93
2022/07/24 06:26:01;;;;;;;;;;;;;;;27.84;37.46;99118.09;5059378;28;19919;-92
2022/07/24 06:28:26;;;;;;;;;;;;;;;27.97;37.61;99114.59;5058728;28;19916;-93
2022/07/24 06:30:51;;;;;;;;;;;;;;;28.05;37.45;99120.94;5058702;28;19920;-92
2022/07/24 06:33:17;;;;;;;;;;;;;;;28.12;37.73;99117.38;5054909;28;19917;-92
2022/07/24 06:35:42;;;;;;;;;;;;;;;28.26;36.62;99109.09;5038455;28;20008;-92
2022/07/24 06:38:09;;;;;;;;;;;;;;;28.34;37.29;99113.44;5039553;28;19944;-92
2022/07/24 06:40:34;;;;;;;;;;;;;;;28.47;37.48;99110.28;5075533;28;20275;-93
2022/07/24 06:43:00;;;;;;;;;;;;;;;28.54;37.66;99111.13;5075640;28;19970;-92
2022/07/24 06:45:25;;;;;;;;;;;;;;;28.67;36.42;99108.72;5075943;28;19965;-93
2022/07/24 06:47:53;;;;;;;;;;;;;;;28.73;36.50;99101.59;5074726;28;19950;-93
2022/07/24 06:50:18;;;;;;;;;;;;;;;28.75;36.54;99102.00;5074365;28;19916;-93
2022/07/24 06:52:45;;;;;;;;;;;;;;;28.88;35.75;99099.59;5075259;28;19946;-92
2022/07/24 06:55:10;;;;;;;;;;;;;;;28.97;35.89;99104.72;5075371;28;19931;-92
2022/07/24 06:57:36;;;;;;;;;;;;;;;29.10;35.55;99107.88;5076012;28;19912;-93
2022/07/24 07:00:01;;;;;;;;;;;;;;;29.21;35.46;99100.31;5058867;28;19955;-92
2022/07/24 07:02:27;;;;;;;;;;;;;;;29.35;34.94;99107.81;5059435;28;19913;-94
2022/07/24 07:04:52;;;;;;;;;;;;;;;29.46;35.56;99108.56;5059316;28;19946;-93
2022/07/24 07:07:20;;;;;;;;;;;;;;;29.56;34.73;99098.59;5058793;28;19960;-93
2022/07/24 07:09:46;;;;;;;;;;;;;;;29.74;34.48;99101.34;5055860;28;19927;-93
2022/07/24 07:12:11;;;;;;;;;;;;;;;29.85;34.81;99102.03;5057616;28;19918;-92
2022/07/24 07:14:36;;;;;;;;;;;;;;;30.02;35.03;99109.47;5059975;28;19940;-92
2022/07/24 07:17:01;;;;;;;;;;;;;;;30.16;34.50;99105.03;5061262;28;20007;-92
2022/07/24 07:19:27;;;;;;;;;;;;;;;30.31;33.69;99105.72;5061729;28;19912;-93
2022/07/24 07:21:52;;;;;;;;;;;;;;;30.44;33.66;99100.47;5060308;28;19943;-92
2022/07/24 07:24:17;;;;;;;;;;;;;;;30.54;33.70;99094.81;5057524;28;19934;-93
2022/07/24 07:26:43;;;;;;;;;;;;;;;30.68;32.88;99102.22;5042011;28;19919;-92
2022/07/24 07:29:08;;;;;;;;;;;;;;;30.79;32.29;99093.78;5041854;28;19936;-93
2022/07/24 07:31:33;;;;;;;;;;;;;;;30.90;31.92;99086.16;5058668;28;19921;-93
2022/07/24 07:33:59;;;;;;;;;;;;;;;31.08;31.37;99088.75;5057715;28;19912;-94
2022/07/24 07:36:24;;;;;;;;;;;;;;;31.24;30.43;99090.16;5055352;28;20367;-93
2022/07/24 07:38:49;;;;;;;;;;;;;;;31.34;29.58;99086.47;5052573;28;20027;-93
2022/07/24 07:41:15;;;;;;;;;;;;;;;31.45;29.49;99089.91;5036626;28;19920;-94
2022/07/24 07:43:41;;;;;;;;;;;;;;;31.56;29.63;99082.22;5036648;28;19963;-94
2022/07/24 07:46:06;;;;;;;;;;;;;;;31.59;29.56;99078.59;5053470;28;19913;-94
2022/07/24 07:48:31;;;;;;;;;;;;;;;31.71;29.54;99080.03;5057224;28;19916;-93
2022/07/24 07:50:57;;;;;;;;;;;;;;;31.81;29.96;99078.28;5036316;28;19919;-94
2022/07/24 07:53:22;;;;;;;;;;;;;;;31.97;29.53;99075.66;5039980;28;20366;-94
2022/07/24 07:55:51;;;;;;;;;;;;;;;32.11;28.74;99071.13;5067817;28;19920;-94
2022/07/24 07:58:16;;;;;;;;;;;;;;;32.26;27.64;99066.09;5053786;28;19966;-94
2022/07/24 08:00:42;;;;;;;;;;;;;;;32.40;27.11;99066.66;5040244;28;20370;-93
2022/07/24 08:03:09;;;;;;;;;;;;;;;32.48;26.88;99060.94;5056432;28;19962;-93
2022/07/24 08:05:35;;;;;;;;;;;;;;;32.64;26.61;99057.50;5056752;28;19919;-95
2022/07/24 08:08:00;;;;;;;;;;;;;;;32.71;27.06;99062.97;5056236;28;20310;-94
2022/07/24 08:10:26;;;;;;;;;;;;;;;32.76;27.04;99060.47;5056457;28;19924;-94
2022/07/24 08:12:54;;;;;;;;;;;;;;;32.89;26.54;99052.25;5039793;28;19928;-94
2022/07/24 08:15:19;;;;;;;;;;;;;;;32.95;26.33;99050.53;5056435;28;19924;-94
2022/07/24 08:17:45;;;;;;;;;;;;;;;33.08;25.96;99047.13;5057183;28;19912;-94
2022/07/24 08:20:10;;;;;;;;;;;;;;;33.23;26.66;99056.78;5039191;28;19917;-94
2022/07/24 08:22:35;;;;;;;;;;;;;;;33.30;23.62;99058.66;5057291;28;19912;-94
2022/07/24 08:25:01;;;;;;;;;;;;;;;33.42;25.09;99053.19;5056996;28;20317;-94
2022/07/24 08:27:26;;;;;;;;;;;;;;;33.59;24.17;99054.00;5039661;28;19917;-93
2022/07/24 08:29:52;;;;;;;;;;;;;;;33.77;22.35;99056.44;5039294;28;19934;-94
2022/07/24 08:32:18;;;;;;;;;;;;;;;33.93;22.28;99058.47;5039481;28;19921;-95
2022/07/24 08:34:43;;;;;;;;;;;;;;;34.06;22.37;99057.78;5053319;28;19916;-94
2022/07/24 08:37:09;;;;;;;;;;;;;;;34.26;21.75;99050.09;5036234;28;19939;-95
2022/07/24 08:39:34;;;;;;;;;;;;;;;34.34;21.49;99054.28;5035994;28;19913;-94
2022/07/24 08:41:59;;;;;;;;;;;;;;;34.42;21.64;99055.66;5035748;28;19920;-93
2022/07/24 08:44:25;;;;;;;;;;;;;;;34.53;22.47;99047.03;5039245;28;19913;-94
2022/07/24 08:46:50;;;;;;;;;;;;;;;34.66;21.65;99051.88;5073416;28;19923;-93
2022/07/24 08:49:16;;;;;;;;;;;;;;;34.75;21.46;99052.84;5061282;28;19919;-93
2022/07/24 08:51:41;;;;;;;;;;;;;;;34.89;20.44;99054.47;5060326;28;20383;-93
2022/07/24 08:54:07;;;;;;;;;;;;;;;35.00;20.42;99037.38;5056723;28;19973;-93
2022/07/24 08:56:36;;;;;;;;;;;;;;;35.12;20.10;99033.03;5040372;28;19924;-93
2022/07/24 08:59:02;;;;;;;;;;;;;;;35.32;20.21;99047.69;5040130;28;19913;-94
2022/07/24 09:01:28;;;;;;;;;;;;;;;35.44;20.19;99037.69;5059937;28;19919;-94
2022/07/24 09:03:53;;;;;;;;;;;;;;;35.52;21.20;99030.66;5051568;28;19919;-94
2022/07/24 09:06:18;;;;;;;;;;;;;;;35.63;20.43;99033.13;5059768;28;20469;-93
2022/07/24 09:09:02;;;;;;;;;;;;;;;35.73;20.40;99025.66;5059546;28;19912;-94
2022/07/24 09:11:31;;;;;;;;;;;;;;;35.82;19.73;99031.38;5059980;28;20401;-93
2022/07/24 09:16:45;;;;;;;;;;;;;;;35.96;20.89;99030.88;5062361;28;19986;-94
2022/07/24 09:19:13;;;;;;;;;;;;;;;35.90;21.10;99035.47;5060365;28;19917;-94
2022/07/24 09:21:39;;;;;;;;;;;;;;;35.81;21.25;99032.59;5056195;28;20363;-95
2022/07/24 09:24:11;;;;;;;;;;;;;;;35.77;21.57;99035.50;5040203;28;19913;-94
2022/07/24 09:26:55;;;;;;;;;;;;;;;35.88;21.61;99028.75;5070067;28;19912;-94
2022/07/24 09:29:22;;;;;;;;;;;;;;;35.94;20.97;99029.78;5059677;28;19948;-94
2022/07/24 09:31:54;;;;;;;;;;;;;;;35.97;20.92;99023.28;5075237;28;19927;-94
2022/07/24 09:34:20;;;;;;;;;;;;;;;36.04;20.48;99020.22;5076300;28;19912;-93
2022/07/24 09:36:58;;;;;;;;;;;;;;;36.13;20.50;99016.72;5043981;28;19976;-94
2022/07/24 09:39:31;;;;;;;;;;;;;;;36.17;20.15;99020.22;5075377;28;20297;-93
2022/07/24 09:41:57;;;;;;;;;;;;;;;36.20;20.61;99022.91;5075893;28;19969;-95
2022/07/24 09:44:25;;;;;;;;;;;;;;;36.23;19.30;99029.63;5076518;28;19917;-95
2022/07/24 09:47:10;;;;;;;;;;;;;;;36.24;17.70;99028.41;5062728;28;19920;-95
2022/07/24 09:49:37;;;;;;;;;;;;;;;36.27;18.01;99038.72;5059726;28;19913;-94
2022/07/24 09:52:05;;;;;;;;;;;;;;;36.25;18.02;99046.00;5075891;28;19917;-96
2022/07/24 09:54:40;;;;;;;;;;;;;;;36.28;18.29;99025.50;5059499;28;19931;-96
2022/07/24 09:57:21;;;;;;;;;;;;;;;36.28;18.28;99019.88;5062499;28;19919;-95
2022/07/24 10:00:07;;;;;;;;;;;;;;;36.32;17.33;99012.91;5075680;28;19912;-96
2022/07/24 10:02:33;;;;;;;;;;;;;;;36.41;17.89;99020.63;5041914;28;19924;-96
2022/07/24 10:04:59;;;;;;;;;;;;;;;36.42;17.49;99016.56;5059300;28;19913;-94
2022/07/24 10:07:25;;;;;;;;;;;;;;;36.52;16.15;99014.63;5042192;28;19912;-95
2022/07/24 10:09:51;;;;;;;;;;;;;;;36.59;17.58;99008.78;5042194;28;19923;-94
2022/07/24 10:12:23;;;;;;;;;;;;;;;36.60;16.32;99008.31;5041671;28;19923;-94
2022/07/24 10:14:49;;;;;;;;;;;;;;;36.70;16.95;99009.19;5058600;28;19970;-94
2022/07/24 10:17:15;;;;;;;;;;;;;;;36.72;15.20;99005.94;5059156;28;19913;-94
2022/07/24 10:19:47;;;;;;;;;;;;;;;36.79;15.76;99002.88;5058161;28;19923;-92
2022/07/24 10:22:23;;;;;;;;;;;;;;;36.83;16.11;99013.97;5042534;28;19934;-94
2022/07/24 10:24:55;;;;;;;;;;;;;;;36.78;16.60;99006.91;5059745;28;20366;-93
2022/07/24 10:27:20;;;;;;;;;;;;;;;36.78;16.09;98987.28;5076129;28;19923;-94
2022/07/24 10:29:46;;;;;;;;;;;;;;;36.87;15.38;98997.78;5058451;28;20438;-95
2022/07/24 10:32:11;;;;;;;;;;;;;;;36.90;16.09;99000.47;5058061;28;19920;-93
2022/07/24 10:34:39;;;;;;;;;;;;;;;36.99;14.11;98997.69;5057655;28;19912;-95
2022/07/24 10:37:23;;;;;;;;;;;;;;;37.09;14.13;98998.53;5058593;28;20389;-95
2022/07/24 10:40:07;;;;;;;;;;;;;;;37.14;14.26;98988.78;5058449;28;19912;-93
2022/07/24 10:42:32;;;;;;;;;;;;;;;37.08;14.89;98993.38;5057814;28;19916;-94
2022/07/24 10:45:28;;;;;;;;;;;;;;;37.19;15.04;98988.19;5058042;28;20003;-95
2022/07/24 10:47:53;;;;;;;;;;;;;;;37.15;15.29;98988.31;5052927;28;19912;-95
2022/07/24 10:50:19;;;;;;;;;;;;;;;37.19;15.00;98971.34;5057594;28;19920;-94
2022/07/24 10:52:44;;;;;;;;;;;;;;;37.25;15.26;98980.69;5053972;28;19925;-94
2022/07/24 10:55:22;;;;;;;;;;;;;;;37.25;15.31;98979.91;5038092;28;19913;-94
2022/07/24 10:57:48;;;;;;;;;;;;;;;37.22;15.93;98978.81;5040922;28;20268;-95
2022/07/24 11:00:20;;;;;;;;;;;;;;;37.25;16.32;98977.88;5058272;28;19913;-95
2022/07/24 11:02:56;;;;;;;;;;;;;;;37.27;14.86;98969.78;5058902;28;19919;-96
2022/07/24 11:05:25;;;;;;;;;;;;;;;37.25;14.92;98980.69;5058964;28;19917;-96
2022/07/24 11:08:09;;;;;;;;;;;;;;;37.34;14.86;98971.56;5074962;28;20421;-94
2022/07/24 11:10:46;;;;;;;;;;;;;;;37.37;14.80;98968.59;5057154;28;19916;-95
2022/07/24 11:13:30;;;;;;;;;;;;;;;37.41;14.53;98962.84;5058923;28;19916;-95
2022/07/24 11:16:11;;;;;;;;;;;;;;;37.45;15.02;98957.84;5058103;28;19940;-94
2022/07/24 11:18:37;;;;;;;;;;;;;;;37.38;14.76;98944.88;5057824;28;20357;-92
2022/07/24 11:21:02;;;;;;;;;;;;;;;37.47;14.51;98963.78;5057512;28;19916;-95
2022/07/24 11:23:27;;;;;;;;;;;;;;;37.35;14.31;98945.78;5057995;28;19912;-94
2022/07/24 11:26:12;;;;;;;;;;;;;;;37.40;14.55;98948.03;5052202;28;19913;-93
2022/07/24 11:28:37;;;;;;;;;;;;;;;37.48;14.48;98942.91;5090925;28;19913;-95
2022/07/24 11:31:02;;;;;;;;;;;;;;;37.45;14.24;98949.44;5074454;28;19920;-94
2022/07/24 11:33:27;;;;;;;;;;;;;;;37.51;14.06;98932.75;5057217;28;19982;-95
2022/07/24 11:35:53;;;;;;;;;;;;;;;37.58;14.40;98941.72;5068473;28;19955;-95
2022/07/24 11:38:18;;;;;;;;;;;;;;;37.62;14.48;98930.31;5053799;28;19913;-94
2022/07/24 11:40:43;;;;;;;;;;;;;;;37.69;14.53;98937.66;5057788;28;20041;-94
2022/07/24 11:43:09;;;;;;;;;;;;;;;37.71;14.64;98937.97;5056761;28;19961;-95
2022/07/24 11:45:34;;;;;;;;;;;;;;;37.79;14.41;98933.63;5056726;28;19912;-95
2022/07/24 11:47:59;;;;;;;;;;;;;;;37.75;14.04;98947.84;5056529;28;19913;-92
2022/07/24 11:50:25;;;;;;;;;;;;;;;37.68;14.66;98925.63;5056437;28;19912;-95
2022/07/24 11:52:50;;;;;;;;;;;;;;;37.71;14.82;98938.78;5056740;28;19921;-94
2022/07/24 11:55:17;;;;;;;;;;;;;;;37.72;14.41;98950.78;5056183;28;20011;-93
2022/07/24 11:57:46;;;;;;;;;;;;;;;37.71;13.63;98943.59;5040043;28;20409;-93
2022/07/24 12:00:12;;;;;;;;;;;;;;;37.64;12.99;98930.63;5056226;28;20006;-95
2022/07/24 12:02:45;;;;;;;;;;;;;;;37.68;13.84;98933.28;5055969;28;19912;-94
2022/07/24 12:05:10;;;;;;;;;;;;;;;37.72;12.60;98931.13;5039496;28;19912;-94
2022/07/24 12:07:36;;;;;;;;;;;;;;;37.66;13.03;98939.38;5056323;28;19976;-93
2022/07/24 12:10:01;;;;;;;;;;;;;;;37.71;13.19;98943.59;5056454;28;19916;-93
2022/07/24 12:12:27;;;;;;;;;;;;;;;37.85;14.00;98926.13;5055750;28;19970;-94
2022/07/24 12:14:54;;;;;;;;;;;;;;;37.79;13.87;98931.59;5055668;28;19920;-94
2022/07/24 12:17:19;;;;;;;;;;;;;;;37.78;14.50;98926.44;5055803;28;20374;-93
2022/07/24 12:19:51;;;;;;;;;;;;;;;37.72;15.12;98923.47;5052293;28;19920;-93
2022/07/24 12:22:17;;;;;;;;;;;;;;;37.74;15.32;98925.81;5035148;28;19912;-94
2022/07/24 12:24:42;;;;;;;;;;;;;;;37.78;15.25;98918.78;5053488;28;19936;-94
2022/07/24 12:27:07;;;;;;;;;;;;;;;37.85;14.83;98931.75;5056031;28;19913;-93
2022/07/24 12:29:33;;;;;;;;;;;;;;;37.83;14.86;98939.88;5052332;28;20449;-91
2022/07/24 12:32:17;;;;;;;;;;;;;;;37.86;15.46;98921.31;5018811;28;20290;-95
2022/07/24 12:34:45;;;;;;;;;;;;;;;38.01;15.27;98914.59;5012742;28;23097;-94
2022/07/24 12:37:14;;;;;;;;;;;;;;;38.13;15.91;98910.09;5035639;28;20011;-93
2022/07/24 12:39:46;;;;;;;;;;;;;;;38.20;15.04;98928.69;5038880;28;19912;-94
2022/07/24 12:42:11;;;;;;;;;;;;;;;38.25;14.85;98918.84;5056503;28;19943;-94
2022/07/24 12:44:42;;;;;;;;;;;;;;;38.29;15.12;98916.66;5052153;28;19935;-95
2022/07/24 12:47:08;;;;;;;;;;;;;;;38.21;15.02;98908.53;5036135;28;19913;-94